createdAt,value
2019-06-26T00:00:27.596Z,26.90
2019-06-26T00:02:56.888Z,26.90
2019-06-26T00:05:27.634Z,26.80
2019-06-26T00:07:56.713Z,26.80
2019-06-26T00:10:25.912Z,26.80
2019-06-26T00:12:55.153Z,26.80
2019-06-26T00:15:24.364Z,26.70
2019-06-26T00:17:53.847Z,26.60
2019-06-26T00:20:23.038Z,26.60
2019-06-26T00:22:52.315Z,26.60
2019-06-26T00:25:21.441Z,26.60
2019-06-26T00:27:50.587Z,26.70
2019-06-26T00:30:19.910Z,26.70
2019-06-26T00:32:49.003Z,26.70
2019-06-26T00:35:18.309Z,26.60
2019-06-26T00:37:47.608Z,26.60
2019-06-26T00:40:17.146Z,26.50
2019-06-26T00:42:46.280Z,26.40
2019-06-26T00:45:15.548Z,26.30
2019-06-26T00:47:45.015Z,26.20
2019-06-26T00:50:15.485Z,26.20
2019-06-26T00:52:44.638Z,26.10
2019-06-26T00:55:13.804Z,26.10
2019-06-26T00:57:42.934Z,26.10
2019-06-26T01:00:13.129Z,26.10
2019-06-26T01:02:42.353Z,26.10
2019-06-26T01:05:12.861Z,26.00
2019-06-26T01:07:42.153Z,26.00
2019-06-26T01:10:12.980Z,26.00
2019-06-26T01:12:42.140Z,25.90
2019-06-26T01:15:12.023Z,25.90
2019-06-26T01:17:41.436Z,25.90
2019-06-26T01:20:10.785Z,26.00
2019-06-26T01:22:40.035Z,26.00
2019-06-26T01:25:09.541Z,26.00
2019-06-26T01:27:38.842Z,26.00
2019-06-26T01:30:09.287Z,26.00
2019-06-26T01:32:38.780Z,26.00
2019-06-26T01:35:08.726Z,26.00
2019-06-26T01:37:37.920Z,25.90
2019-06-26T01:40:08.001Z,25.90
2019-06-26T01:42:37.322Z,25.80
2019-06-26T01:45:08.866Z,25.80
2019-06-26T01:47:38.178Z,25.80
2019-06-26T01:50:08.025Z,25.80
2019-06-26T01:52:37.381Z,25.70
2019-06-26T01:55:08.047Z,25.60
2019-06-26T01:57:37.110Z,25.50
2019-06-26T02:00:13.440Z,25.50
2019-06-26T02:02:42.670Z,25.60
2019-06-26T02:05:12.084Z,25.50
2019-06-26T02:07:41.109Z,25.60
2019-06-26T02:10:11.084Z,25.60
2019-06-26T02:12:40.154Z,25.60
2019-06-26T02:15:09.533Z,25.50
2019-06-26T02:17:38.578Z,25.50
2019-06-26T02:20:08.634Z,25.50
2019-06-26T02:22:37.801Z,25.50
2019-06-26T02:25:07.552Z,25.40
2019-06-26T02:27:37.017Z,25.40
2019-06-26T02:30:09.145Z,25.40
2019-06-26T02:32:38.604Z,25.40
2019-06-26T02:35:38.704Z,25.40
2019-06-26T02:38:08.399Z,25.40
2019-06-26T02:40:38.257Z,25.30
2019-06-26T02:43:08.164Z,25.30
2019-06-26T02:45:38.180Z,25.30
2019-06-26T02:48:08.172Z,25.30
2019-06-26T02:50:37.667Z,25.30
2019-06-26T02:53:25.095Z,25.20
2019-06-26T02:55:52.581Z,25.30
2019-06-26T02:58:21.766Z,25.30
2019-06-26T03:00:50.854Z,25.20
2019-06-26T03:03:21.271Z,25.20
2019-06-26T03:05:51.453Z,25.20
2019-06-26T03:08:20.826Z,25.20
2019-06-26T03:10:50.713Z,25.20
2019-06-26T03:13:21.350Z,25.10
2019-06-26T03:15:52.234Z,25.20
2019-06-26T03:18:23.606Z,25.20
2019-06-26T03:20:58.286Z,25.20
2019-06-26T03:23:27.787Z,25.20
2019-06-26T03:25:57.747Z,25.10
2019-06-26T03:28:27.868Z,25.20
2019-06-26T03:30:58.130Z,25.10
2019-06-26T03:33:27.816Z,25.10
2019-06-26T03:35:57.592Z,25.10
2019-06-26T03:38:27.080Z,25.10
2019-06-26T03:40:57.031Z,25.00
2019-06-26T03:43:27.497Z,25.00
2019-06-26T03:45:57.019Z,25.00
2019-06-26T03:48:27.271Z,25.10
2019-06-26T03:50:57.391Z,25.10
2019-06-26T03:53:26.791Z,25.10
2019-06-26T03:55:59.630Z,25.00
2019-06-26T03:58:29.507Z,25.10
2019-06-26T04:01:11.231Z,25.10
2019-06-26T04:03:40.812Z,25.10
2019-06-26T04:06:12.898Z,25.10
2019-06-26T04:08:43.333Z,25.20
2019-06-26T04:11:13.344Z,25.20
2019-06-26T04:13:43.027Z,25.30
2019-06-26T04:16:19.402Z,25.30
2019-06-26T04:18:50.010Z,25.40
2019-06-26T04:21:20.173Z,25.40
2019-06-26T04:23:57.251Z,25.40
2019-06-26T04:26:31.895Z,25.50
2019-06-26T04:29:05.875Z,25.50
2019-06-26T04:31:40.757Z,25.60
2019-06-26T04:34:12.993Z,25.60
2019-06-26T04:36:47.966Z,25.70
2019-06-26T04:39:18.381Z,25.70
2019-06-26T04:41:54.399Z,25.70
2019-06-26T04:44:30.870Z,25.80
2019-06-26T04:47:01.316Z,25.80
2019-06-26T04:49:37.125Z,25.80
2019-06-26T04:52:07.521Z,26.00
2019-06-26T04:54:37.316Z,26.00
2019-06-26T04:57:06.978Z,26.10
2019-06-26T04:59:37.088Z,26.10
2019-06-26T05:02:08.370Z,26.20
2019-06-26T05:04:38.730Z,26.30
2019-06-26T05:07:08.673Z,26.40
2019-06-26T05:09:38.604Z,26.50
2019-06-26T05:12:08.202Z,26.60
2019-06-26T05:14:38.798Z,26.70
2019-06-26T05:17:16.476Z,26.70
2019-06-26T05:19:47.623Z,26.80
2019-06-26T05:22:18.241Z,26.90
2019-06-26T05:24:51.150Z,27.10
2019-06-26T05:27:20.747Z,27.10
2019-06-26T05:29:54.426Z,27.20
2019-06-26T05:32:23.869Z,27.30
2019-06-26T05:34:53.420Z,27.40
2019-06-26T05:37:22.903Z,27.50
2019-06-26T05:40:15.454Z,27.60
2019-06-26T05:42:44.971Z,27.70
2019-06-26T05:45:15.328Z,27.70
2019-06-26T05:50:51.316Z,27.80
2019-06-26T05:53:27.504Z,28.00
2019-06-26T05:55:56.853Z,28.10
2019-06-26T05:58:26.121Z,28.20
2019-06-26T06:01:03.628Z,28.30
2019-06-26T06:06:41.738Z,28.50
2019-06-26T06:09:15.538Z,28.60
2019-06-26T06:11:46.562Z,28.80
2019-06-26T06:14:16.065Z,28.90
2019-06-26T06:16:56.039Z,29.00
2019-06-26T06:19:37.548Z,29.00
2019-06-26T06:22:09.206Z,29.10
2019-06-26T06:24:43.908Z,29.20
2019-06-26T06:27:18.425Z,29.30
2019-06-26T06:29:51.090Z,29.40
2019-06-26T06:35:13.381Z,29.60
2019-06-26T06:37:43.301Z,29.70
2019-06-26T06:40:19.363Z,29.70
2019-06-26T06:42:49.280Z,29.80
2019-06-26T06:45:27.077Z,29.90
2019-06-26T06:47:57.103Z,30.00
2019-06-26T06:50:47.752Z,30.10
2019-06-26T06:53:19.143Z,30.20
2019-06-26T06:55:48.263Z,30.20
2019-06-26T06:58:24.264Z,30.30
2019-06-26T07:00:56.631Z,30.40
2019-06-26T07:03:33.998Z,30.60
2019-06-26T07:06:04.320Z,30.70
2019-06-26T07:08:34.363Z,30.90
2019-06-26T07:11:11.390Z,31.10
2019-06-26T07:13:42.424Z,31.30
2019-06-26T07:16:34.427Z,31.50
2019-06-26T07:19:05.397Z,31.70
2019-06-26T07:21:41.891Z,31.90
2019-06-26T07:24:12.386Z,32.00
2019-06-26T07:26:52.588Z,32.20
2019-06-26T07:32:30.464Z,32.40
2019-06-26T07:35:22.675Z,32.60
2019-06-26T07:38:00.935Z,32.70
2019-06-26T07:40:33.242Z,32.90
2019-06-26T07:43:04.665Z,33.00
2019-06-26T07:45:41.680Z,33.20
2019-06-26T07:48:14.443Z,33.20
2019-06-26T07:53:46.850Z,33.30
2019-06-26T07:59:13.302Z,33.60
2019-06-26T08:02:08.468Z,33.60
2019-06-26T08:04:42.533Z,33.60
2019-06-26T08:07:21.107Z,33.60
2019-06-26T08:09:56.625Z,33.90
2019-06-26T08:12:45.432Z,33.90
2019-06-26T08:15:28.353Z,33.60
2019-06-26T08:18:07.710Z,33.60
2019-06-26T08:20:51.907Z,33.90
2019-06-26T08:23:21.120Z,34.10
2019-06-26T08:25:54.922Z,34.20
2019-06-26T08:28:32.484Z,34.10
2019-06-26T08:31:05.068Z,34.30
2019-06-26T08:33:45.286Z,34.10
2019-06-26T08:36:17.491Z,33.80
2019-06-26T08:38:55.284Z,33.90
2019-06-26T08:41:26.044Z,34.20
2019-06-26T08:43:58.028Z,34.10
2019-06-26T08:46:34.803Z,34.00
2019-06-26T08:49:04.266Z,34.10
2019-06-26T08:52:15.146Z,34.30
2019-06-26T08:54:57.743Z,34.50
2019-06-26T08:57:34.186Z,34.90
2019-06-26T09:00:05.784Z,35.20
2019-06-26T09:02:56.361Z,35.40
2019-06-26T09:05:26.186Z,35.70
2019-06-26T09:08:15.620Z,35.70
2019-06-26T09:10:51.226Z,35.80
2019-06-26T09:13:29.304Z,35.50
2019-06-26T09:16:02.019Z,35.70
2019-06-26T09:18:35.934Z,36.10
2019-06-26T09:21:16.791Z,36.50
2019-06-26T09:23:48.892Z,36.60
2019-06-26T09:26:25.349Z,36.80
2019-06-26T09:29:01.049Z,37.00
2019-06-26T09:31:56.914Z,37.30
2019-06-26T09:34:26.331Z,37.60
2019-06-26T09:37:02.653Z,37.90
2019-06-26T09:39:31.697Z,38.10
2019-06-26T09:42:01.371Z,38.20
2019-06-26T09:44:42.103Z,38.30
2019-06-26T09:47:23.288Z,38.60
2019-06-26T09:50:01.026Z,38.80
2019-06-26T09:52:50.799Z,39.00
2019-06-26T09:55:39.563Z,39.10
2019-06-26T09:58:12.997Z,39.20
2019-06-26T10:00:50.324Z,39.20
2019-06-26T10:03:21.104Z,39.60
2019-06-26T10:05:53.259Z,39.90
2019-06-26T10:08:30.308Z,40.00
2019-06-26T10:11:07.408Z,39.60
2019-06-26T10:13:39.884Z,39.80
2019-06-26T10:16:10.321Z,40.10
2019-06-26T10:18:49.575Z,40.30
2019-06-26T10:24:13.461Z,40.50
2019-06-26T10:26:47.213Z,40.50
2019-06-26T10:29:17.139Z,40.50
2019-06-26T10:31:56.214Z,40.50
2019-06-26T10:34:27.212Z,40.30
2019-06-26T10:37:04.086Z,40.30
2019-06-26T10:39:33.798Z,40.30
2019-06-26T10:42:04.735Z,40.60
2019-06-26T10:44:43.217Z,40.70
2019-06-26T10:53:14.596Z,39.70
2019-06-26T10:55:51.656Z,39.70
2019-06-26T10:58:23.221Z,40.00
2019-06-26T11:00:54.219Z,40.30
2019-06-26T11:03:33.048Z,40.50
2019-06-26T11:06:29.705Z,40.90
2019-06-26T11:09:07.744Z,41.00
2019-06-26T11:11:39.958Z,41.20
2019-06-26T11:14:17.638Z,41.20
2019-06-26T11:16:47.096Z,40.90
2019-06-26T11:19:17.480Z,41.20
2019-06-26T11:21:54.172Z,41.60
2019-06-26T11:30:11.460Z,41.80
2019-06-26T11:32:48.499Z,42.00
2019-06-26T11:35:19.612Z,42.00
2019-06-26T11:37:49.494Z,41.30
2019-06-26T11:40:26.669Z,40.40
2019-06-26T11:42:56.926Z,40.80
2019-06-26T11:45:34.642Z,41.00
2019-06-26T11:48:04.024Z,41.10
2019-06-26T11:50:34.383Z,41.30
2019-06-26T11:53:12.148Z,41.70
2019-06-26T11:55:57.818Z,42.10
2019-06-26T11:58:35.769Z,42.10
2019-06-26T12:01:06.023Z,41.60
2019-06-26T12:06:19.165Z,41.30
2019-06-26T12:08:48.533Z,41.30
2019-06-26T12:11:17.512Z,41.50
2019-06-26T12:13:49.250Z,42.10
2019-06-26T12:16:18.508Z,42.30
2019-06-26T12:18:47.441Z,41.90
2019-06-26T12:21:16.888Z,41.40
2019-06-26T12:23:46.114Z,41.20
2019-06-26T12:26:15.084Z,41.10
2019-06-26T12:28:44.178Z,41.40
2019-06-26T12:31:13.181Z,42.00
2019-06-26T12:33:42.176Z,42.10
2019-06-26T12:36:11.552Z,42.50
2019-06-26T12:38:40.620Z,42.40
2019-06-26T12:41:09.753Z,43.00
2019-06-26T12:43:39.046Z,42.60
2019-06-26T12:46:08.056Z,42.90
2019-06-26T12:48:37.043Z,43.20
2019-06-26T12:51:06.092Z,43.90
2019-06-26T12:53:35.404Z,43.80
2019-06-26T12:56:04.698Z,43.20
2019-06-26T12:58:33.641Z,42.50
2019-06-26T13:01:02.893Z,41.80
2019-06-26T13:03:31.836Z,41.20
2019-06-26T13:06:00.838Z,42.00
2019-06-26T13:08:29.776Z,42.80
2019-06-26T13:10:58.735Z,43.50
2019-06-26T13:13:27.722Z,44.40
2019-06-26T13:15:57.022Z,44.90
2019-06-26T13:18:26.184Z,45.00
2019-06-26T13:20:55.238Z,45.10
2019-06-26T13:23:24.289Z,45.50
2019-06-26T13:25:53.341Z,44.80
2019-06-26T13:28:22.272Z,44.50
2019-06-26T13:30:53.362Z,44.70
2019-06-26T13:33:22.101Z,44.90
2019-06-26T13:35:51.027Z,45.00
2019-06-26T13:38:20.178Z,45.50
2019-06-26T13:40:49.172Z,46.10
2019-06-26T13:43:18.288Z,46.40
2019-06-26T13:45:47.799Z,46.60
2019-06-26T13:48:17.268Z,46.70
2019-06-26T13:50:46.375Z,46.90
2019-06-26T13:53:15.434Z,46.10
2019-06-26T13:55:44.419Z,45.90
2019-06-26T13:58:13.393Z,46.10
2019-06-26T14:00:42.552Z,46.40
2019-06-26T14:03:11.566Z,47.00
2019-06-26T14:05:40.568Z,47.10
2019-06-26T14:08:09.536Z,46.80
2019-06-26T14:10:38.748Z,46.40
2019-06-26T14:13:09.184Z,46.30
2019-06-26T14:15:38.181Z,46.30
2019-06-26T14:18:07.222Z,46.20
2019-06-26T14:20:36.526Z,46.10
2019-06-26T14:23:05.485Z,45.80
2019-06-26T14:25:34.550Z,45.50
2019-06-26T14:28:03.538Z,45.30
2019-06-26T14:30:32.502Z,45.40
2019-06-26T14:33:05.844Z,46.00
2019-06-26T14:35:35.028Z,46.10
2019-06-26T14:38:03.970Z,44.80
2019-06-26T14:40:33.048Z,44.70
2019-06-26T14:43:02.009Z,45.60
2019-06-26T14:45:31.389Z,46.50
2019-06-26T14:48:00.373Z,47.30
2019-06-26T14:50:29.354Z,47.80
2019-06-26T14:52:58.452Z,48.40
2019-06-26T14:55:27.513Z,48.80
2019-06-26T14:57:56.610Z,49.30
2019-06-26T15:00:26.161Z,49.40
2019-06-26T15:02:55.088Z,49.50
2019-06-26T15:05:24.072Z,49.50
2019-06-26T15:07:53.394Z,49.20
2019-06-26T15:10:22.581Z,49.50
2019-06-26T15:12:51.634Z,49.30
2019-06-26T15:15:21.072Z,49.30
2019-06-26T15:17:50.181Z,49.60
2019-06-26T15:20:19.745Z,49.70
2019-06-26T15:22:48.769Z,49.70
2019-06-26T15:25:18.097Z,49.30
2019-06-26T15:27:47.080Z,49.50
2019-06-26T15:30:16.728Z,49.60
2019-06-26T15:32:45.701Z,49.50
2019-06-26T15:35:15.540Z,49.40
2019-06-26T15:37:44.924Z,49.10
2019-06-26T15:40:17.134Z,48.10
2019-06-26T15:42:48.884Z,46.90
2019-06-26T15:45:19.761Z,47.10
2019-06-26T15:47:47.557Z,47.40
2019-06-26T15:50:16.654Z,46.30
2019-06-26T15:52:45.959Z,45.00
2019-06-26T15:55:15.563Z,43.90
2019-06-26T15:57:44.623Z,42.60
2019-06-26T16:00:14.560Z,41.80
2019-06-26T16:02:43.619Z,41.40
2019-06-26T16:05:12.892Z,40.90
2019-06-26T16:07:41.974Z,40.20
2019-06-26T16:10:11.107Z,39.80
2019-06-26T16:12:40.152Z,39.50
2019-06-26T16:15:10.561Z,39.40
2019-06-26T16:17:53.190Z,39.30
2019-06-26T16:20:22.224Z,39.10
2019-06-26T16:22:51.229Z,38.80
2019-06-26T16:25:20.308Z,38.60
2019-06-26T16:28:04.268Z,38.50
2019-06-26T16:30:20.770Z,38.40
2019-06-26T16:32:49.938Z,38.40
2019-06-26T16:35:19.093Z,38.30
2019-06-26T16:37:48.034Z,37.90
2019-06-26T16:40:17.182Z,37.80
2019-06-26T16:42:46.250Z,37.40
2019-06-26T16:45:16.685Z,37.10
2019-06-26T16:47:45.769Z,36.70
2019-06-26T16:50:15.433Z,36.60
2019-06-26T16:52:49.187Z,36.60
2019-06-26T16:55:15.531Z,36.50
2019-06-26T16:57:44.705Z,36.30
2019-06-26T17:00:14.145Z,36.10
2019-06-26T17:02:43.370Z,36.00
2019-06-26T17:05:13.500Z,36.00
2019-06-26T17:07:42.630Z,35.90
2019-06-26T17:10:13.403Z,35.90
2019-06-26T17:12:42.621Z,35.80
2019-06-26T17:15:12.242Z,35.60
2019-06-26T17:17:43.025Z,35.50
2019-06-26T17:20:12.548Z,35.40
2019-06-26T17:22:41.665Z,35.30
2019-06-26T17:25:10.965Z,35.20
2019-06-26T17:27:40.263Z,35.20
2019-06-26T17:30:10.487Z,35.10
2019-06-26T17:32:39.425Z,35.00
2019-06-26T17:35:08.552Z,34.80
2019-06-26T17:37:37.795Z,34.70
2019-06-26T17:40:07.924Z,34.50
2019-06-26T17:42:36.911Z,34.40
2019-06-26T17:45:09.927Z,34.40
2019-06-26T17:47:38.900Z,34.10
2019-06-26T17:50:08.571Z,34.20
2019-06-26T17:52:39.917Z,34.20
2019-06-26T17:55:08.757Z,34.00
2019-06-26T17:57:37.757Z,33.80
2019-06-26T18:00:11.730Z,33.90
2019-06-26T18:02:40.781Z,33.70
2019-06-26T18:05:10.532Z,33.70
2019-06-26T18:07:39.535Z,33.60
2019-06-26T18:10:09.166Z,33.60
2019-06-26T18:12:38.154Z,33.50
2019-06-26T18:15:08.068Z,33.30
2019-06-26T18:17:37.113Z,33.20
2019-06-26T18:20:07.562Z,33.20
2019-06-26T18:22:36.926Z,33.20
2019-06-26T18:25:07.773Z,32.90
2019-06-26T18:27:36.705Z,32.90
2019-06-26T18:30:10.366Z,32.90
2019-06-26T18:32:39.647Z,32.80
2019-06-26T18:35:08.675Z,32.60
2019-06-26T18:37:37.672Z,32.50
2019-06-26T18:40:08.251Z,32.30
2019-06-26T18:42:37.699Z,32.20
2019-06-26T18:45:07.762Z,32.00
2019-06-26T18:47:36.729Z,32.00
2019-06-26T18:50:08.432Z,31.90
2019-06-26T18:52:37.807Z,31.80
2019-06-26T18:55:07.797Z,31.80
2019-06-26T18:57:36.760Z,31.70
2019-06-26T19:00:10.341Z,31.70
2019-06-26T19:02:39.523Z,31.70
2019-06-26T19:05:09.167Z,31.60
2019-06-26T19:07:38.242Z,31.40
2019-06-26T19:10:08.898Z,31.40
2019-06-26T19:12:37.857Z,31.30
2019-06-26T19:15:08.280Z,31.10
2019-06-26T19:17:37.424Z,30.90
2019-06-26T19:20:08.457Z,30.90
2019-06-26T19:22:37.786Z,30.70
2019-06-26T19:25:10.077Z,30.70
2019-06-26T19:27:39.403Z,30.50
2019-06-26T19:30:10.230Z,30.50
2019-06-26T19:32:41.505Z,30.50
2019-06-26T19:35:19.799Z,30.50
2019-06-26T19:37:44.282Z,30.20
2019-06-26T19:40:13.865Z,30.30
2019-06-26T19:42:42.821Z,30.20
2019-06-26T19:45:12.763Z,30.10
2019-06-26T19:47:42.034Z,30.10
2019-06-26T19:50:11.782Z,30.10
2019-06-26T19:52:40.878Z,29.80
2019-06-26T19:55:10.295Z,29.80
2019-06-26T19:57:40.098Z,29.80
2019-06-26T20:00:11.100Z,29.80
2019-06-26T20:02:40.336Z,29.60
2019-06-26T20:05:10.486Z,29.50
2019-06-26T20:07:39.888Z,29.50
2019-06-26T20:10:11.238Z,29.40
2019-06-26T20:12:40.337Z,29.30
2019-06-26T20:15:10.014Z,29.10
2019-06-26T20:17:39.073Z,29.10
2019-06-26T20:20:09.765Z,29.10
2019-06-26T20:22:38.802Z,28.90
2019-06-26T20:25:09.216Z,28.80
2019-06-26T20:27:38.214Z,28.70
2019-06-26T20:30:09.716Z,28.60
2019-06-26T20:32:39.149Z,28.60
2019-06-26T20:35:08.331Z,28.50
2019-06-26T20:37:37.406Z,28.50
2019-06-26T20:40:07.995Z,28.30
2019-06-26T20:42:37.048Z,28.20
2019-06-26T20:45:07.898Z,28.20
2019-06-26T20:47:36.989Z,28.20
2019-06-26T20:50:09.689Z,28.10
2019-06-26T20:52:38.841Z,28.10
2019-06-26T20:55:08.607Z,28.00
2019-06-26T20:57:37.769Z,27.90
2019-06-26T21:00:08.680Z,27.90
2019-06-26T21:02:37.927Z,27.70
2019-06-26T21:05:07.824Z,27.70
2019-06-26T21:07:36.818Z,27.50
2019-06-26T21:10:06.656Z,27.40
2019-06-26T21:12:35.744Z,27.30
2019-06-26T21:15:08.962Z,27.30
2019-06-26T21:17:38.036Z,27.30
2019-06-26T21:20:08.180Z,27.10
2019-06-26T21:22:37.121Z,27.00
2019-06-26T21:25:17.710Z,27.00
2019-06-26T21:27:38.481Z,27.00
2019-06-26T21:30:08.019Z,27.00
2019-06-26T21:32:37.149Z,27.00
2019-06-26T21:35:07.007Z,26.90
2019-06-26T21:37:36.379Z,26.70
2019-06-26T21:40:05.959Z,26.80
2019-06-26T21:42:35.088Z,26.60
2019-06-26T21:45:05.122Z,26.60
2019-06-26T21:47:34.307Z,26.60
2019-06-26T21:50:03.608Z,26.50
2019-06-26T21:52:33.269Z,26.50
2019-06-26T21:55:02.414Z,26.50
2019-06-26T21:57:31.510Z,26.40
2019-06-26T22:00:00.649Z,26.40
2019-06-26T22:02:30.397Z,26.30
2019-06-26T22:05:00.430Z,26.30
2019-06-26T22:07:30.683Z,26.10
2019-06-26T22:10:00.442Z,26.00
2019-06-26T22:12:29.884Z,25.90
2019-06-26T22:14:59.586Z,25.90
2019-06-26T22:17:29.406Z,25.90
2019-06-26T22:19:58.843Z,25.80
2019-06-26T22:22:28.527Z,25.80
2019-06-26T22:24:58.127Z,25.60
2019-06-26T22:27:28.149Z,25.50
2019-06-26T22:29:57.745Z,25.30
2019-06-26T22:32:27.491Z,25.30
2019-06-26T22:34:57.452Z,25.20
2019-06-26T22:37:29.015Z,25.00
2019-06-26T22:39:59.936Z,25.10
2019-06-26T22:42:29.848Z,25.00
2019-06-26T22:44:59.602Z,24.80
2019-06-26T22:47:29.411Z,24.80
2019-06-26T22:49:59.100Z,24.70
2019-06-26T22:52:28.720Z,24.70
2019-06-26T22:54:58.341Z,24.50
2019-06-26T22:57:28.405Z,24.40
2019-06-26T22:59:58.242Z,24.30
2019-06-26T23:02:27.875Z,24.30
2019-06-26T23:04:57.878Z,24.30
2019-06-26T23:07:27.696Z,24.30
2019-06-26T23:09:57.596Z,24.10
2019-06-26T23:12:27.513Z,23.90
2019-06-26T23:14:56.879Z,23.70
2019-06-26T23:17:26.624Z,23.60
2019-06-26T23:19:56.189Z,23.50
2019-06-26T23:22:26.126Z,23.50
2019-06-26T23:24:55.842Z,23.30
2019-06-26T23:27:25.378Z,23.20
2019-06-26T23:29:54.837Z,23.20
2019-06-26T23:32:24.231Z,23.20
2019-06-26T23:34:53.426Z,23.20
2019-06-26T23:37:22.621Z,22.90
2019-06-26T23:39:51.774Z,22.80
2019-06-26T23:42:21.278Z,22.80
2019-06-26T23:44:50.325Z,22.70
2019-06-26T23:47:19.680Z,22.50
2019-06-26T23:49:48.774Z,22.50
2019-06-26T23:52:18.015Z,22.30
2019-06-26T23:54:47.584Z,22.10
2019-06-26T23:57:16.983Z,22.20
2019-06-26T23:59:46.232Z,21.90
